CES2527 ZUGY-ZHHH
Flight info
| Callsign | CES2527 |
|---|---|
| Flight time | 1h 11m |
| Altitude | 39100 |
| Route | AVBOB3C AVBOB W586 TRN W183 HUY A581 LIN W207 TIKME W208 WTM WTM1T |
| Aircraft | A388/J-SADE2E3FGHIJ3J4J5M1RWXY/LB1D1 |
Departure
| Time | 2026-05-01 12:51 |
|---|---|
| Airport | Guiyang Longdongbao International Airport (ZUGY) |
Arrival
| Time | 2026-05-01 14:02 |
|---|---|
| Airport | Wuhan Tianhe International Airport (ZHHH) |
| Time | Latitude | Longitude | Altitude | Speed | Heading |
|---|---|---|---|---|---|
| 2026-05-01 12:38 | 26.54483 | 106.79968 | 3752 ft | 2 kts | 349° |
| 2026-05-01 12:38 | 26.54466 | 106.79969 | 3752 ft | 2 kts | 358° |
| 2026-05-01 12:39 | 26.54455 | 106.79968 | 3752 ft | 1 kts | 4° |
| 2026-05-01 12:39 | 26.54454 | 106.79968 | 3752 ft | 0 kts | 5° |
| 2026-05-01 12:42 | 26.54456 | 106.79968 | 3752 ft | 1 kts | 5° |
| 2026-05-01 12:42 | 26.54475 | 106.79971 | 3752 ft | 5 kts | 10° |
| 2026-05-01 12:43 | 26.54525 | 106.79981 | 3752 ft | 10 kts | 10° |
| 2026-05-01 12:43 | 26.54614 | 106.79999 | 3752 ft | 16 kts | 10° |
| 2026-05-01 12:43 | 26.54740 | 106.80024 | 3752 ft | 20 kts | 10° |
| 2026-05-01 12:43 | 26.54789 | 106.80080 | 3752 ft | 11 kts | 86° |
| 2026-05-01 12:44 | 26.54821 | 106.80116 | 3751 ft | 8 kts | 15° |
| 2026-05-01 12:44 | 26.54899 | 106.80136 | 3751 ft | 15 kts | 11° |
| 2026-05-01 12:44 | 26.55161 | 106.80183 | 3751 ft | 24 kts | 10° |
| 2026-05-01 12:45 | 26.55535 | 106.80254 | 3752 ft | 30 kts | 9° |
| 2026-05-01 12:45 | 26.55724 | 106.80243 | 3752 ft | 25 kts | 328° |
| 2026-05-01 12:45 | 26.55796 | 106.80237 | 3752 ft | 2 kts | 30° |
| 2026-05-01 12:46 | 26.55851 | 106.80248 | 3752 ft | 12 kts | 5° |
| 2026-05-01 12:46 | 26.55952 | 106.80260 | 3752 ft | 17 kts | 6° |
| 2026-05-01 12:46 | 26.56067 | 106.80318 | 3752 ft | 20 kts | 52° |
| 2026-05-01 12:46 | 26.56101 | 106.80462 | 3752 ft | 20 kts | 99° |
| 2026-05-01 12:47 | 26.56078 | 106.80619 | 3752 ft | 21 kts | 100° |
| 2026-05-01 12:47 | 26.55996 | 106.80708 | 3752 ft | 16 kts | 174° |
| 2026-05-01 12:47 | 26.55950 | 106.80711 | 3752 ft | 1 kts | 176° |
| 2026-05-01 12:47 | 26.55936 | 106.80712 | 3752 ft | 2 kts | 165° |
| 2026-05-01 12:48 | 26.55919 | 106.80723 | 3752 ft | 4 kts | 134° |
| 2026-05-01 12:48 | 26.55902 | 106.80758 | 3752 ft | 7 kts | 110° |
| 2026-05-01 12:48 | 26.55886 | 106.80818 | 3752 ft | 9 kts | 102° |
| 2026-05-01 12:48 | 26.55861 | 106.80870 | 3752 ft | 6 kts | 161° |
| 2026-05-01 12:49 | 26.55821 | 106.80870 | 3752 ft | 6 kts | 191° |
| 2026-05-01 12:49 | 26.55811 | 106.80868 | 3752 ft | 0 kts | 191° |
| 2026-05-01 12:50 | 26.55801 | 106.80866 | 3752 ft | 16 kts | 191° |
| 2026-05-01 12:50 | 26.55367 | 106.80780 | 3753 ft | 108 kts | 189° |
| 2026-05-01 12:50 | 26.54457 | 106.80606 | 3783 ft | 153 kts | 189° |
| 2026-05-01 12:51 | 26.53373 | 106.80429 | 4225 ft | 158 kts | 187° |
| 2026-05-01 12:51 | 26.52293 | 106.80215 | 4824 ft | 157 kts | 193° |
| 2026-05-01 12:51 | 26.50138 | 106.79966 | 5760 ft | 168 kts | 187° |
| 2026-05-01 12:52 | 26.48888 | 106.79776 | 6159 ft | 193 kts | 191° |
| 2026-05-01 12:52 | 26.45909 | 106.79382 | 7235 ft | 235 kts | 190° |
| 2026-05-01 12:52 | 26.44257 | 106.79166 | 7863 ft | 251 kts | 184° |
| 2026-05-01 12:53 | 26.41041 | 106.81221 | 9186 ft | 302 kts | 131° |
| 2026-05-01 12:53 | 26.40181 | 106.83414 | 9961 ft | 319 kts | 105° |
| 2026-05-01 12:53 | 26.40119 | 106.85960 | 10394 ft | 344 kts | 83° |
| 2026-05-01 12:54 | 26.40909 | 106.88551 | 10672 ft | 364 kts | 60° |
| 2026-05-01 12:54 | 26.44444 | 106.92861 | 11406 ft | 389 kts | 48° |
| 2026-05-01 12:54 | 26.46027 | 106.95298 | 12197 ft | 390 kts | 56° |
| 2026-05-01 12:55 | 26.48893 | 107.00434 | 13589 ft | 395 kts | 58° |
| 2026-05-01 12:55 | 26.50332 | 107.03048 | 14230 ft | 398 kts | 58° |
| 2026-05-01 12:55 | 26.51796 | 107.05689 | 14920 ft | 399 kts | 57° |
| 2026-05-01 12:56 | 26.53273 | 107.08320 | 15614 ft | 402 kts | 57° |
| 2026-05-01 12:56 | 26.54776 | 107.10965 | 16145 ft | 408 kts | 57° |
| 2026-05-01 12:56 | 26.56305 | 107.13639 | 16798 ft | 410 kts | 57° |
| 2026-05-01 12:56 | 26.57827 | 107.16294 | 17380 ft | 413 kts | 57° |
| 2026-05-01 12:57 | 26.59391 | 107.19020 | 17990 ft | 417 kts | 57° |
| 2026-05-01 12:57 | 26.62540 | 107.24517 | 19004 ft | 425 kts | 57° |
| 2026-05-01 12:57 | 26.64138 | 107.27311 | 19542 ft | 427 kts | 57° |
| 2026-05-01 12:58 | 26.65742 | 107.30117 | 20041 ft | 431 kts | 56° |
| 2026-05-01 12:58 | 26.67364 | 107.32956 | 20459 ft | 436 kts | 57° |
| 2026-05-01 12:58 | 26.68998 | 107.35818 | 21012 ft | 438 kts | 57° |
| 2026-05-01 12:59 | 26.72305 | 107.41614 | 21894 ft | 446 kts | 57° |
| 2026-05-01 12:59 | 26.73958 | 107.44516 | 22337 ft | 450 kts | 57° |
| 2026-05-01 12:59 | 26.77337 | 107.50453 | 23259 ft | 456 kts | 56° |
| 2026-05-01 13:00 | 26.80762 | 107.56476 | 24094 ft | 461 kts | 56° |
| 2026-05-01 13:00 | 26.82487 | 107.59513 | 24484 ft | 463 kts | 56° |
| 2026-05-01 13:01 | 26.85958 | 107.65630 | 25280 ft | 468 kts | 57° |
| 2026-05-01 13:01 | 26.87708 | 107.68719 | 25678 ft | 471 kts | 56° |
| 2026-05-01 13:01 | 26.91192 | 107.74916 | 26461 ft | 473 kts | 68° |
| 2026-05-01 13:02 | 26.92843 | 107.78075 | 26853 ft | 467 kts | 69° |
| 2026-05-01 13:07 | 27.33396 | 108.45875 | 35093 ft | 537 kts | 52° |
| 2026-05-01 13:07 | 27.35591 | 108.49273 | 35601 ft | 537 kts | 52° |
| 2026-05-01 13:07 | 27.37786 | 108.52675 | 36125 ft | 537 kts | 52° |
| 2026-05-01 13:08 | 27.39947 | 108.56026 | 36595 ft | 537 kts | 52° |
| 2026-05-01 13:08 | 27.42146 | 108.59435 | 37001 ft | 539 kts | 51° |
| 2026-05-01 13:08 | 27.44350 | 108.62855 | 37536 ft | 539 kts | 51° |
| 2026-05-01 13:08 | 27.46547 | 108.66268 | 38050 ft | 538 kts | 51° |
| 2026-05-01 13:09 | 27.48740 | 108.69671 | 38585 ft | 537 kts | 51° |
| 2026-05-01 13:09 | 27.50933 | 108.73077 | 38934 ft | 537 kts | 51° |
| 2026-05-01 13:09 | 27.53136 | 108.76508 | 39051 ft | 545 kts | 51° |
| 2026-05-01 13:10 | 27.57500 | 108.83319 | 39046 ft | 536 kts | 51° |
| 2026-05-01 13:10 | 27.61874 | 108.90146 | 39039 ft | 538 kts | 51° |
| 2026-05-01 13:11 | 27.66265 | 108.97010 | 39031 ft | 540 kts | 51° |
| 2026-05-01 13:11 | 27.70650 | 109.03876 | 39023 ft | 540 kts | 51° |
| 2026-05-01 13:12 | 27.75008 | 109.10714 | 39027 ft | 540 kts | 51° |
| 2026-05-01 13:12 | 27.79392 | 109.17603 | 39053 ft | 540 kts | 51° |
| 2026-05-01 13:13 | 27.83944 | 109.24302 | 39045 ft | 534 kts | 40° |
| 2026-05-01 13:13 | 27.89854 | 109.29119 | 39057 ft | 518 kts | 19° |
| 2026-05-01 13:14 | 27.96555 | 109.31463 | 39037 ft | 502 kts | 4° |
| 2026-05-01 13:14 | 28.03421 | 109.32951 | 39039 ft | 502 kts | 4° |
| 2026-05-01 13:15 | 28.10281 | 109.34465 | 39040 ft | 503 kts | 4° |
| 2026-05-01 13:15 | 28.17149 | 109.35977 | 39039 ft | 503 kts | 4° |
| 2026-05-01 13:16 | 28.23974 | 109.37480 | 39036 ft | 503 kts | 4° |
| 2026-05-01 13:16 | 28.30829 | 109.38991 | 39033 ft | 503 kts | 4° |
| 2026-05-01 13:17 | 28.44583 | 109.42026 | 39047 ft | 504 kts | 4° |
| 2026-05-01 13:18 | 28.51346 | 109.44310 | 39039 ft | 518 kts | 20° |
| 2026-05-01 13:18 | 28.54439 | 109.46358 | 39034 ft | 526 kts | 30° |
| 2026-05-01 13:18 | 28.59706 | 109.52222 | 39043 ft | 539 kts | 51° |
| 2026-05-01 13:19 | 28.61653 | 109.55880 | 39049 ft | 543 kts | 62° |
| 2026-05-01 13:19 | 28.63094 | 109.59859 | 39045 ft | 545 kts | 67° |
| 2026-05-01 13:20 | 28.67263 | 109.71900 | 39041 ft | 545 kts | 65° |
| 2026-05-01 13:20 | 28.70142 | 109.79825 | 39054 ft | 545 kts | 66° |
| 2026-05-01 13:21 | 28.74446 | 109.91803 | 39069 ft | 544 kts | 66° |
| 2026-05-01 13:21 | 28.77297 | 109.99796 | 39066 ft | 544 kts | 66° |
| 2026-05-01 13:22 | 28.80142 | 110.07788 | 39060 ft | 544 kts | 66° |
| 2026-05-01 13:22 | 28.82961 | 110.15724 | 39061 ft | 543 kts | 66° |
| 2026-05-01 13:23 | 28.85792 | 110.23712 | 39060 ft | 543 kts | 66° |
| 2026-05-01 13:23 | 28.88618 | 110.31696 | 39076 ft | 543 kts | 66° |
| 2026-05-01 13:24 | 28.91436 | 110.39682 | 39055 ft | 543 kts | 66° |
| 2026-05-01 13:25 | 28.95636 | 110.51614 | 39059 ft | 542 kts | 66° |
| 2026-05-01 13:25 | 28.98444 | 110.59615 | 39055 ft | 543 kts | 66° |
| 2026-05-01 13:26 | 29.01246 | 110.67618 | 39057 ft | 542 kts | 66° |
| 2026-05-01 13:26 | 29.04028 | 110.75561 | 39041 ft | 543 kts | 66° |
| 2026-05-01 13:27 | 29.06865 | 110.83554 | 39055 ft | 542 kts | 65° |
| 2026-05-01 13:27 | 29.11113 | 110.95542 | 39056 ft | 543 kts | 65° |
| 2026-05-01 13:28 | 29.15325 | 111.07489 | 39057 ft | 542 kts | 65° |
| 2026-05-01 13:29 | 29.20945 | 111.23502 | 39075 ft | 542 kts | 65° |
| 2026-05-01 13:31 | 29.29308 | 111.47453 | 39074 ft | 541 kts | 65° |
| 2026-05-01 13:32 | 29.37556 | 111.66558 | 39061 ft | 529 kts | 45° |
| 2026-05-01 13:33 | 29.50774 | 111.80780 | 39068 ft | 522 kts | 37° |
| 2026-05-01 13:34 | 29.61528 | 111.91951 | 39067 ft | 521 kts | 37° |
| 2026-05-01 13:35 | 29.69549 | 112.00298 | 39058 ft | 521 kts | 37° |
| 2026-05-01 13:36 | 29.77599 | 112.08694 | 39055 ft | 521 kts | 37° |
| 2026-05-01 13:36 | 29.85640 | 112.17102 | 39075 ft | 520 kts | 36° |
| 2026-05-01 13:37 | 29.90948 | 112.22661 | 38829 ft | 516 kts | 36° |
| 2026-05-01 13:37 | 29.93586 | 112.25430 | 38595 ft | 513 kts | 36° |
| 2026-05-01 13:37 | 29.96225 | 112.28198 | 38300 ft | 513 kts | 36° |
| 2026-05-01 13:38 | 30.01517 | 112.33753 | 36739 ft | 517 kts | 37° |
| 2026-05-01 13:38 | 30.04187 | 112.36557 | 35701 ft | 523 kts | 37° |
| 2026-05-01 13:38 | 30.06894 | 112.39402 | 34603 ft | 530 kts | 37° |
| 2026-05-01 13:39 | 30.09632 | 112.42284 | 33380 ft | 537 kts | 38° |
| 2026-05-01 13:39 | 30.12393 | 112.45195 | 32433 ft | 536 kts | 38° |
| 2026-05-01 13:39 | 30.15125 | 112.48083 | 31790 ft | 529 kts | 38° |
| 2026-05-01 13:39 | 30.17771 | 112.50884 | 31416 ft | 516 kts | 38° |
| 2026-05-01 13:40 | 30.20389 | 112.53657 | 31035 ft | 505 kts | 38° |
| 2026-05-01 13:40 | 30.22973 | 112.56389 | 30254 ft | 504 kts | 38° |
| 2026-05-01 13:40 | 30.25552 | 112.59115 | 29637 ft | 499 kts | 39° |
| 2026-05-01 13:40 | 30.28084 | 112.61796 | 29178 ft | 489 kts | 39° |
| 2026-05-01 13:41 | 30.30571 | 112.64433 | 28599 ft | 483 kts | 39° |
| 2026-05-01 13:41 | 30.33038 | 112.67049 | 28019 ft | 478 kts | 39° |
| 2026-05-01 13:41 | 30.35470 | 112.69629 | 27443 ft | 472 kts | 39° |
| 2026-05-01 13:41 | 30.37849 | 112.72155 | 26885 ft | 468 kts | 39° |
| 2026-05-01 13:42 | 30.40232 | 112.74686 | 26311 ft | 463 kts | 39° |
| 2026-05-01 13:42 | 30.42598 | 112.77202 | 25739 ft | 460 kts | 39° |
| 2026-05-01 13:42 | 30.44944 | 112.79698 | 25173 ft | 456 kts | 40° |
| 2026-05-01 13:42 | 30.47271 | 112.82176 | 24598 ft | 453 kts | 40° |
| 2026-05-01 13:43 | 30.49585 | 112.84641 | 24045 ft | 450 kts | 40° |
| 2026-05-01 13:43 | 30.51885 | 112.87092 | 23462 ft | 448 kts | 40° |
| 2026-05-01 13:43 | 30.54171 | 112.89532 | 22843 ft | 445 kts | 40° |
| 2026-05-01 13:43 | 30.56396 | 112.91999 | 22274 ft | 441 kts | 42° |
| 2026-05-01 13:44 | 30.58517 | 112.94482 | 21705 ft | 437 kts | 43° |
| 2026-05-01 13:44 | 30.60636 | 112.96990 | 21138 ft | 433 kts | 43° |
| 2026-05-01 13:44 | 30.62741 | 112.99470 | 20572 ft | 429 kts | 43° |
| 2026-05-01 13:44 | 30.64835 | 113.01923 | 20004 ft | 426 kts | 43° |
| 2026-05-01 13:45 | 30.66922 | 113.04358 | 19435 ft | 424 kts | 43° |
| 2026-05-01 13:45 | 30.68994 | 113.06771 | 18860 ft | 421 kts | 43° |
| 2026-05-01 13:45 | 30.71055 | 113.09172 | 18289 ft | 418 kts | 43° |
| 2026-05-01 13:45 | 30.72979 | 113.11692 | 17664 ft | 417 kts | 54° |
| 2026-05-01 13:46 | 30.74247 | 113.14611 | 17112 ft | 414 kts | 71° |
| 2026-05-01 13:46 | 30.74773 | 113.17870 | 16557 ft | 408 kts | 89° |
| 2026-05-01 13:46 | 30.74484 | 113.21054 | 16048 ft | 399 kts | 107° |
| 2026-05-01 13:46 | 30.73517 | 113.24035 | 15506 ft | 391 kts | 117° |
| 2026-05-01 13:47 | 30.72392 | 113.26896 | 14962 ft | 387 kts | 116° |
| 2026-05-01 13:47 | 30.71359 | 113.29770 | 14421 ft | 385 kts | 114° |
| 2026-05-01 13:47 | 30.70440 | 113.32677 | 13865 ft | 382 kts | 111° |
| 2026-05-01 13:47 | 30.69604 | 113.35586 | 13304 ft | 378 kts | 110° |
| 2026-05-01 13:48 | 30.68814 | 113.38479 | 12769 ft | 373 kts | 110° |
| 2026-05-01 13:48 | 30.68049 | 113.41330 | 12250 ft | 367 kts | 110° |
| 2026-05-01 13:48 | 30.67307 | 113.44103 | 11720 ft | 362 kts | 110° |
| 2026-05-01 13:48 | 30.66564 | 113.46872 | 11220 ft | 357 kts | 110° |
| 2026-05-01 13:49 | 30.65829 | 113.49601 | 10702 ft | 352 kts | 110° |
| 2026-05-01 13:49 | 30.65103 | 113.52291 | 10349 ft | 343 kts | 110° |
| 2026-05-01 13:49 | 30.64408 | 113.54874 | 10217 ft | 327 kts | 110° |
| 2026-05-01 13:49 | 30.63737 | 113.57342 | 10097 ft | 314 kts | 111° |
| 2026-05-01 13:50 | 30.63088 | 113.59698 | 9978 ft | 301 kts | 111° |
| 2026-05-01 13:50 | 30.62450 | 113.61997 | 9630 ft | 297 kts | 111° |
| 2026-05-01 13:50 | 30.61829 | 113.64233 | 9311 ft | 293 kts | 111° |
| 2026-05-01 13:50 | 30.61210 | 113.66468 | 8996 ft | 289 kts | 111° |
| 2026-05-01 13:51 | 30.60600 | 113.68671 | 8671 ft | 285 kts | 112° |
| 2026-05-01 13:51 | 30.60001 | 113.70842 | 8370 ft | 280 kts | 112° |
| 2026-05-01 13:51 | 30.59411 | 113.72980 | 8054 ft | 276 kts | 112° |
| 2026-05-01 13:51 | 30.58828 | 113.75087 | 7748 ft | 272 kts | 112° |
| 2026-05-01 13:52 | 30.58253 | 113.77160 | 7464 ft | 268 kts | 112° |
| 2026-05-01 13:52 | 30.57687 | 113.79202 | 7189 ft | 264 kts | 112° |
| 2026-05-01 13:52 | 30.57134 | 113.81193 | 6889 ft | 261 kts | 112° |
| 2026-05-01 13:52 | 30.56517 | 113.83160 | 6598 ft | 257 kts | 120° |
| 2026-05-01 13:53 | 30.55591 | 113.84901 | 6293 ft | 251 kts | 132° |
| 2026-05-01 13:53 | 30.53297 | 113.87873 | 5724 ft | 245 kts | 134° |
| 2026-05-01 13:53 | 30.52177 | 113.89346 | 5449 ft | 243 kts | 135° |
| 2026-05-01 13:54 | 30.51072 | 113.90820 | 5177 ft | 241 kts | 130° |
| 2026-05-01 13:54 | 30.50380 | 113.92589 | 4907 ft | 247 kts | 103° |
| 2026-05-01 13:54 | 30.50501 | 113.94570 | 4820 ft | 249 kts | 75° |
| 2026-05-01 13:54 | 30.51376 | 113.96247 | 4700 ft | 247 kts | 47° |
| 2026-05-01 13:55 | 30.52654 | 113.97496 | 4498 ft | 234 kts | 43° |
| 2026-05-01 13:55 | 30.53878 | 113.98703 | 4241 ft | 228 kts | 44° |
| 2026-05-01 13:55 | 30.55023 | 113.99871 | 4143 ft | 210 kts | 44° |
| 2026-05-01 13:55 | 30.56055 | 114.00931 | 3942 ft | 188 kts | 45° |
| 2026-05-01 13:56 | 30.56987 | 114.01885 | 3694 ft | 167 kts | 45° |
| 2026-05-01 13:56 | 30.57822 | 114.02730 | 3428 ft | 154 kts | 46° |
| 2026-05-01 13:56 | 30.58615 | 114.03536 | 3107 ft | 149 kts | 46° |
| 2026-05-01 13:56 | 30.59362 | 114.04305 | 2818 ft | 144 kts | 47° |
| 2026-05-01 13:57 | 30.60106 | 114.05070 | 2535 ft | 142 kts | 47° |
| 2026-05-01 13:57 | 30.60601 | 114.05581 | 2331 ft | 141 kts | 47° |
| 2026-05-01 13:57 | 30.61593 | 114.06601 | 1820 ft | 146 kts | 47° |
| 2026-05-01 13:57 | 30.62342 | 114.07357 | 1557 ft | 136 kts | 46° |
| 2026-05-01 13:58 | 30.63076 | 114.08094 | 1474 ft | 143 kts | 47° |
| 2026-05-01 13:58 | 30.63825 | 114.08851 | 1475 ft | 143 kts | 47° |
| 2026-05-01 13:58 | 30.64561 | 114.09628 | 1594 ft | 145 kts | 47° |
| 2026-05-01 13:58 | 30.65303 | 114.10408 | 1860 ft | 143 kts | 46° |
| 2026-05-01 13:59 | 30.66059 | 114.11166 | 1967 ft | 143 kts | 46° |
| 2026-05-01 13:59 | 30.66804 | 114.11934 | 1984 ft | 145 kts | 48° |
| 2026-05-01 13:59 | 30.67567 | 114.12709 | 1988 ft | 146 kts | 47° |
| 2026-05-01 13:59 | 30.68323 | 114.13477 | 1971 ft | 142 kts | 47° |
| 2026-05-01 14:00 | 30.69056 | 114.14233 | 1978 ft | 139 kts | 49° |
| 2026-05-01 14:00 | 30.69778 | 114.14969 | 1972 ft | 138 kts | 47° |
| 2026-05-01 14:00 | 30.70509 | 114.15709 | 1968 ft | 140 kts | 49° |
| 2026-05-01 14:00 | 30.71235 | 114.16466 | 1835 ft | 146 kts | 46° |
| 2026-05-01 14:01 | 30.72003 | 114.17251 | 1613 ft | 144 kts | 47° |
| 2026-05-01 14:01 | 30.72750 | 114.18007 | 1424 ft | 143 kts | 48° |
| 2026-05-01 14:01 | 30.73524 | 114.18760 | 1072 ft | 144 kts | 46° |
| 2026-05-01 14:01 | 30.74285 | 114.19525 | 793 ft | 146 kts | 47° |
| 2026-05-01 14:02 | 30.75037 | 114.20344 | 478 ft | 146 kts | 44° |
| 2026-05-01 14:02 | 30.75771 | 114.21087 | 207 ft | 133 kts | 43° |
| 2026-05-01 14:02 | 30.76424 | 114.21755 | 136 ft | 108 kts | 42° |
| 2026-05-01 14:02 | 30.76831 | 114.22185 | 140 ft | 46 kts | 42° |
| 2026-05-01 14:03 | 30.76909 | 114.22267 | 139 ft | 3 kts | 42° |
| 2026-05-01 14:03 | 30.77005 | 114.22363 | 139 ft | 32 kts | 39° |
| 2026-05-01 14:03 | 30.77175 | 114.22512 | 139 ft | 29 kts | 26° |
| 2026-05-01 14:03 | 30.77347 | 114.22537 | 138 ft | 8 kts | 320° |
| 2026-05-01 14:04 | 30.77368 | 114.22480 | 137 ft | 11 kts | 268° |
| 2026-05-01 14:04 | 30.77375 | 114.22373 | 136 ft | 15 kts | 265° |
| 2026-05-01 14:04 | 30.77309 | 114.22278 | 132 ft | 17 kts | 225° |
| 2026-05-01 14:04 | 30.77260 | 114.22200 | 131 ft | 19 kts | 250° |
| 2026-05-01 14:05 | 30.77336 | 114.22039 | 129 ft | 21 kts | 314° |
| 2026-05-01 14:05 | 30.77439 | 114.21907 | 128 ft | 24 kts | 312° |
| 2026-05-01 14:05 | 30.77506 | 114.21805 | 130 ft | 8 kts | 270° |
| 2026-05-01 14:05 | 30.77477 | 114.21755 | 132 ft | 10 kts | 225° |
| 2026-05-01 14:06 | 30.77458 | 114.21734 | 132 ft | 0 kts | 223° |